sensor_id;sensor_type;location;lat;lon;timestamp;temperature;humidity
19031;DHT22;9648;51.130;13.978;2023-07-31T00:00:11;13.20;99.90
19031;DHT22;9648;51.130;13.978;2023-07-31T00:02:39;13.20;99.90
19031;DHT22;9648;51.130;13.978;2023-07-31T00:05:06;13.20;99.90
19031;DHT22;9648;51.130;13.978;2023-07-31T00:07:34;13.20;99.90
19031;DHT22;9648;51.130;13.978;2023-07-31T00:10:00;13.10;99.90
19031;DHT22;9648;51.130;13.978;2023-07-31T00:12:28;13.10;99.90
19031;DHT22;9648;51.130;13.978;2023-07-31T00:14:55;13.10;99.90
19031;DHT22;9648;51.130;13.978;2023-07-31T00:17:21;13.10;99.90
19031;DHT22;9648;51.130;13.978;2023-07-31T00:19:48;13.10;99.90
19031;DHT22;9648;51.130;13.978;2023-07-31T00:22:16;13.00;99.90
19031;DHT22;9648;51.130;13.978;2023-07-31T00:24:44;13.00;99.90
19031;DHT22;9648;51.130;13.978;2023-07-31T00:27:11;13.00;99.90
19031;DHT22;9648;51.130;13.978;2023-07-31T00:29:37;12.90;99.90
19031;DHT22;9648;51.130;13.978;2023-07-31T00:32:05;12.90;99.90
19031;DHT22;9648;51.130;13.978;2023-07-31T00:34:32;12.90;99.90
19031;DHT22;9648;51.130;13.978;2023-07-31T00:36:59;12.80;99.90
19031;DHT22;9648;51.130;13.978;2023-07-31T00:39:26;12.80;99.90
19031;DHT22;9648;51.130;13.978;2023-07-31T00:41:54;12.70;99.90
19031;DHT22;9648;51.130;13.978;2023-07-31T00:44:20;12.70;99.90
19031;DHT22;9648;51.130;13.978;2023-07-31T00:46:48;12.70;99.90
19031;DHT22;9648;51.130;13.978;2023-07-31T00:49:15;12.60;99.90
19031;DHT22;9648;51.130;13.978;2023-07-31T00:51:42;12.60;99.90
19031;DHT22;9648;51.130;13.978;2023-07-31T00:54:09;12.60;99.90
19031;DHT22;9648;51.130;13.978;2023-07-31T00:56:38;12.50;99.90
19031;DHT22;9648;51.130;13.978;2023-07-31T00:59:06;12.50;99.90
19031;DHT22;9648;51.130;13.978;2023-07-31T01:01:33;12.50;99.90
19031;DHT22;9648;51.130;13.978;2023-07-31T01:03:59;12.50;99.90
19031;DHT22;9648;51.130;13.978;2023-07-31T01:06:33;12.50;99.90
19031;DHT22;9648;51.130;13.978;2023-07-31T01:09:05;12.40;99.90
19031;DHT22;9648;51.130;13.978;2023-07-31T01:11:37;12.40;99.90
19031;DHT22;9648;51.130;13.978;2023-07-31T01:14:06;12.40;99.90
19031;DHT22;9648;51.130;13.978;2023-07-31T01:16:33;12.40;99.90
19031;DHT22;9648;51.130;13.978;2023-07-31T01:19:00;12.40;99.90
19031;DHT22;9648;51.130;13.978;2023-07-31T01:21:44;12.40;99.90
19031;DHT22;9648;51.130;13.978;2023-07-31T01:24:28;12.30;99.90
19031;DHT22;9648;51.130;13.978;2023-07-31T01:27:02;12.30;99.90
19031;DHT22;9648;51.130;13.978;2023-07-31T01:29:34;12.30;99.90
19031;DHT22;9648;51.130;13.978;2023-07-31T01:32:05;12.30;99.90
19031;DHT22;9648;51.130;13.978;2023-07-31T01:34:32;12.20;99.90
19031;DHT22;9648;51.130;13.978;2023-07-31T01:37:00;12.20;99.90
19031;DHT22;9648;51.130;13.978;2023-07-31T01:39:27;12.20;99.90
19031;DHT22;9648;51.130;13.978;2023-07-31T01:41:53;12.20;99.90
19031;DHT22;9648;51.130;13.978;2023-07-31T01:44:22;12.20;99.90
19031;DHT22;9648;51.130;13.978;2023-07-31T01:46:49;12.10;99.90
19031;DHT22;9648;51.130;13.978;2023-07-31T01:49:15;12.20;99.90
19031;DHT22;9648;51.130;13.978;2023-07-31T01:51:42;12.20;99.90
19031;DHT22;9648;51.130;13.978;2023-07-31T01:54:09;12.20;99.90
19031;DHT22;9648;51.130;13.978;2023-07-31T01:56:36;12.20;99.90
19031;DHT22;9648;51.130;13.978;2023-07-31T01:59:03;12.20;99.90
19031;DHT22;9648;51.130;13.978;2023-07-31T02:01:31;12.20;99.90
19031;DHT22;9648;51.130;13.978;2023-07-31T02:03:58;12.30;99.90
19031;DHT22;9648;51.130;13.978;2023-07-31T02:06:25;12.30;99.90
19031;DHT22;9648;51.130;13.978;2023-07-31T02:08:52;12.40;99.90
19031;DHT22;9648;51.130;13.978;2023-07-31T02:11:18;12.40;99.90
19031;DHT22;9648;51.130;13.978;2023-07-31T02:13:45;12.40;99.90
19031;DHT22;9648;51.130;13.978;2023-07-31T02:16:12;12.50;99.90
19031;DHT22;9648;51.130;13.978;2023-07-31T02:18:40;12.50;99.90
19031;DHT22;9648;51.130;13.978;2023-07-31T02:21:07;12.60;99.90
19031;DHT22;9648;51.130;13.978;2023-07-31T02:23:34;12.60;99.90
19031;DHT22;9648;51.130;13.978;2023-07-31T02:26:00;12.70;99.90
19031;DHT22;9648;51.130;13.978;2023-07-31T02:28:28;12.70;99.90
19031;DHT22;9648;51.130;13.978;2023-07-31T02:30:54;12.70;99.90
19031;DHT22;9648;51.130;13.978;2023-07-31T02:33:21;12.70;99.90
19031;DHT22;9648;51.130;13.978;2023-07-31T02:35:50;12.80;99.90
19031;DHT22;9648;51.130;13.978;2023-07-31T02:38:17;12.80;99.90
19031;DHT22;9648;51.130;13.978;2023-07-31T02:40:45;12.90;99.90
19031;DHT22;9648;51.130;13.978;2023-07-31T02:43:12;12.90;99.90
19031;DHT22;9648;51.130;13.978;2023-07-31T02:45:38;12.90;99.90
19031;DHT22;9648;51.130;13.978;2023-07-31T02:48:05;12.90;99.90
19031;DHT22;9648;51.130;13.978;2023-07-31T02:50:32;13.00;99.90
19031;DHT22;9648;51.130;13.978;2023-07-31T02:53:00;13.00;99.90
19031;DHT22;9648;51.130;13.978;2023-07-31T02:55:27;13.00;99.90
19031;DHT22;9648;51.130;13.978;2023-07-31T02:57:54;13.00;99.90
19031;DHT22;9648;51.130;13.978;2023-07-31T03:00:21;13.10;99.90
19031;DHT22;9648;51.130;13.978;2023-07-31T03:02:47;13.10;99.90
19031;DHT22;9648;51.130;13.978;2023-07-31T03:05:14;13.10;99.90
19031;DHT22;9648;51.130;13.978;2023-07-31T03:07:41;13.10;99.90
19031;DHT22;9648;51.130;13.978;2023-07-31T03:10:09;13.10;99.90
19031;DHT22;9648;51.130;13.978;2023-07-31T03:12:36;13.20;99.90
19031;DHT22;9648;51.130;13.978;2023-07-31T03:15:03;13.20;99.90
19031;DHT22;9648;51.130;13.978;2023-07-31T03:17:30;13.20;99.90
19031;DHT22;9648;51.130;13.978;2023-07-31T03:19:57;13.20;99.90
19031;DHT22;9648;51.130;13.978;2023-07-31T03:22:24;13.20;99.90
19031;DHT22;9648;51.130;13.978;2023-07-31T03:24:51;13.30;99.90
19031;DHT22;9648;51.130;13.978;2023-07-31T03:27:20;13.30;99.90
19031;DHT22;9648;51.130;13.978;2023-07-31T03:29:46;13.30;99.90
19031;DHT22;9648;51.130;13.978;2023-07-31T03:32:15;13.30;99.90
19031;DHT22;9648;51.130;13.978;2023-07-31T03:34:42;13.30;99.90
19031;DHT22;9648;51.130;13.978;2023-07-31T03:37:08;13.30;99.90
19031;DHT22;9648;51.130;13.978;2023-07-31T03:39:35;13.40;99.90
19031;DHT22;9648;51.130;13.978;2023-07-31T03:42:02;13.40;99.90
19031;DHT22;9648;51.130;13.978;2023-07-31T03:44:31;13.30;99.90
19031;DHT22;9648;51.130;13.978;2023-07-31T03:46:57;13.40;99.90
19031;DHT22;9648;51.130;13.978;2023-07-31T03:49:24;13.40;99.90
19031;DHT22;9648;51.130;13.978;2023-07-31T03:51:51;13.50;99.90
19031;DHT22;9648;51.130;13.978;2023-07-31T03:54:18;13.50;99.90
19031;DHT22;9648;51.130;13.978;2023-07-31T03:56:44;13.60;99.90
19031;DHT22;9648;51.130;13.978;2023-07-31T03:59:11;13.70;99.90
19031;DHT22;9648;51.130;13.978;2023-07-31T04:01:39;13.90;99.90
19031;DHT22;9648;51.130;13.978;2023-07-31T04:04:06;13.90;99.90
19031;DHT22;9648;51.130;13.978;2023-07-31T04:06:33;14.00;99.90
19031;DHT22;9648;51.130;13.978;2023-07-31T04:08:59;14.00;99.90
19031;DHT22;9648;51.130;13.978;2023-07-31T04:11:26;14.00;99.90
19031;DHT22;9648;51.130;13.978;2023-07-31T04:13:54;14.00;99.90
19031;DHT22;9648;51.130;13.978;2023-07-31T04:16:20;14.10;99.90
19031;DHT22;9648;51.130;13.978;2023-07-31T04:18:52;14.10;99.90
19031;DHT22;9648;51.130;13.978;2023-07-31T04:21:19;14.10;99.90
19031;DHT22;9648;51.130;13.978;2023-07-31T04:23:45;14.10;99.90
19031;DHT22;9648;51.130;13.978;2023-07-31T04:26:12;14.10;99.90
19031;DHT22;9648;51.130;13.978;2023-07-31T04:28:39;14.10;99.90
19031;DHT22;9648;51.130;13.978;2023-07-31T04:31:06;14.10;99.90
19031;DHT22;9648;51.130;13.978;2023-07-31T04:33:33;14.20;99.90
19031;DHT22;9648;51.130;13.978;2023-07-31T04:36:01;14.20;99.90
19031;DHT22;9648;51.130;13.978;2023-07-31T04:38:27;14.20;99.90
19031;DHT22;9648;51.130;13.978;2023-07-31T04:40:54;14.20;99.90
19031;DHT22;9648;51.130;13.978;2023-07-31T04:43:21;14.20;99.90
19031;DHT22;9648;51.130;13.978;2023-07-31T04:45:48;14.20;99.90
19031;DHT22;9648;51.130;13.978;2023-07-31T04:48:16;14.30;99.90
19031;DHT22;9648;51.130;13.978;2023-07-31T04:50:43;14.20;99.90
19031;DHT22;9648;51.130;13.978;2023-07-31T04:53:11;14.30;99.90
19031;DHT22;9648;51.130;13.978;2023-07-31T04:55:38;14.30;99.90
19031;DHT22;9648;51.130;13.978;2023-07-31T04:58:05;14.30;99.90
19031;DHT22;9648;51.130;13.978;2023-07-31T05:00:31;14.40;99.90
19031;DHT22;9648;51.130;13.978;2023-07-31T05:02:58;14.40;99.90
19031;DHT22;9648;51.130;13.978;2023-07-31T05:05:25;14.40;99.90
19031;DHT22;9648;51.130;13.978;2023-07-31T05:07:52;14.40;99.90
19031;DHT22;9648;51.130;13.978;2023-07-31T05:10:20;14.40;99.90
19031;DHT22;9648;51.130;13.978;2023-07-31T05:12:47;14.50;99.90
19031;DHT22;9648;51.130;13.978;2023-07-31T05:15:14;14.50;99.90
19031;DHT22;9648;51.130;13.978;2023-07-31T05:17:40;14.50;99.90
19031;DHT22;9648;51.130;13.978;2023-07-31T05:20:08;14.50;99.90
19031;DHT22;9648;51.130;13.978;2023-07-31T05:22:35;14.50;99.90
19031;DHT22;9648;51.130;13.978;2023-07-31T05:25:02;14.60;99.90
19031;DHT22;9648;51.130;13.978;2023-07-31T05:27:32;14.60;99.90
19031;DHT22;9648;51.130;13.978;2023-07-31T05:29:59;14.70;99.90
19031;DHT22;9648;51.130;13.978;2023-07-31T05:32:26;14.70;99.90
19031;DHT22;9648;51.130;13.978;2023-07-31T05:34:52;14.70;99.90
19031;DHT22;9648;51.130;13.978;2023-07-31T05:37:19;14.70;99.90
19031;DHT22;9648;51.130;13.978;2023-07-31T05:39:46;14.70;99.90
19031;DHT22;9648;51.130;13.978;2023-07-31T05:42:13;14.70;99.90
19031;DHT22;9648;51.130;13.978;2023-07-31T05:44:41;14.70;99.90
19031;DHT22;9648;51.130;13.978;2023-07-31T05:47:08;14.70;99.90
19031;DHT22;9648;51.130;13.978;2023-07-31T05:49:35;14.80;99.90
19031;DHT22;9648;51.130;13.978;2023-07-31T05:52:02;14.80;99.90
19031;DHT22;9648;51.130;13.978;2023-07-31T05:54:28;14.80;99.90
19031;DHT22;9648;51.130;13.978;2023-07-31T05:56:55;14.80;99.90
19031;DHT22;9648;51.130;13.978;2023-07-31T05:59:22;14.80;99.90
19031;DHT22;9648;51.130;13.978;2023-07-31T06:01:50;14.80;99.90
19031;DHT22;9648;51.130;13.978;2023-07-31T06:04:17;14.80;99.90
19031;DHT22;9648;51.130;13.978;2023-07-31T06:06:44;14.80;99.90
19031;DHT22;9648;51.130;13.978;2023-07-31T06:09:10;14.90;99.90
19031;DHT22;9648;51.130;13.978;2023-07-31T06:11:38;14.90;99.90
19031;DHT22;9648;51.130;13.978;2023-07-31T06:14:04;14.90;99.90
19031;DHT22;9648;51.130;13.978;2023-07-31T06:16:31;14.90;99.90
19031;DHT22;9648;51.130;13.978;2023-07-31T06:19:00;14.90;99.90
19031;DHT22;9648;51.130;13.978;2023-07-31T06:21:27;14.90;99.90
19031;DHT22;9648;51.130;13.978;2023-07-31T06:23:55;14.90;99.90
19031;DHT22;9648;51.130;13.978;2023-07-31T06:26:22;14.90;99.90
19031;DHT22;9648;51.130;13.978;2023-07-31T06:28:48;14.90;99.90
19031;DHT22;9648;51.130;13.978;2023-07-31T06:31:15;14.90;99.90
19031;DHT22;9648;51.130;13.978;2023-07-31T06:33:45;14.90;99.90
19031;DHT22;9648;51.130;13.978;2023-07-31T06:36:14;14.90;99.90
19031;DHT22;9648;51.130;13.978;2023-07-31T06:38:40;14.90;99.90
19031;DHT22;9648;51.130;13.978;2023-07-31T06:41:07;14.90;99.90
19031;DHT22;9648;51.130;13.978;2023-07-31T06:43:34;14.90;99.90
19031;DHT22;9648;51.130;13.978;2023-07-31T06:46:04;14.90;99.90
19031;DHT22;9648;51.130;13.978;2023-07-31T06:48:31;14.90;99.90
19031;DHT22;9648;51.130;13.978;2023-07-31T06:50:58;14.90;99.90
19031;DHT22;9648;51.130;13.978;2023-07-31T06:53:26;15.00;99.90
19031;DHT22;9648;51.130;13.978;2023-07-31T06:55:53;15.00;99.90
19031;DHT22;9648;51.130;13.978;2023-07-31T06:58:20;15.00;99.90
19031;DHT22;9648;51.130;13.978;2023-07-31T07:00:47;15.10;99.90
19031;DHT22;9648;51.130;13.978;2023-07-31T07:03:15;15.10;99.90
19031;DHT22;9648;51.130;13.978;2023-07-31T07:05:42;15.20;99.90
19031;DHT22;9648;51.130;13.978;2023-07-31T07:08:09;15.20;99.90
19031;DHT22;9648;51.130;13.978;2023-07-31T07:10:37;15.20;99.90
19031;DHT22;9648;51.130;13.978;2023-07-31T07:13:04;15.20;99.90
19031;DHT22;9648;51.130;13.978;2023-07-31T07:15:31;15.20;99.90
19031;DHT22;9648;51.130;13.978;2023-07-31T07:17:58;15.30;99.90
19031;DHT22;9648;51.130;13.978;2023-07-31T07:20:24;15.40;99.90
19031;DHT22;9648;51.130;13.978;2023-07-31T07:22:51;15.40;99.90
19031;DHT22;9648;51.130;13.978;2023-07-31T07:25:18;15.40;99.90
19031;DHT22;9648;51.130;13.978;2023-07-31T07:27:46;15.40;99.90
19031;DHT22;9648;51.130;13.978;2023-07-31T07:30:13;15.50;99.90
19031;DHT22;9648;51.130;13.978;2023-07-31T07:32:40;15.60;99.90
19031;DHT22;9648;51.130;13.978;2023-07-31T07:35:08;15.60;99.90
19031;DHT22;9648;51.130;13.978;2023-07-31T07:37:34;15.60;99.90
19031;DHT22;9648;51.130;13.978;2023-07-31T07:40:01;15.70;99.90
19031;DHT22;9648;51.130;13.978;2023-07-31T07:42:28;15.80;99.90
19031;DHT22;9648;51.130;13.978;2023-07-31T07:44:56;15.90;99.90
19031;DHT22;9648;51.130;13.978;2023-07-31T07:47:23;16.00;99.90
19031;DHT22;9648;51.130;13.978;2023-07-31T07:49:50;16.10;99.90
19031;DHT22;9648;51.130;13.978;2023-07-31T07:52:17;16.20;99.90
19031;DHT22;9648;51.130;13.978;2023-07-31T07:54:43;16.30;99.90
19031;DHT22;9648;51.130;13.978;2023-07-31T07:57:10;16.30;99.90
19031;DHT22;9648;51.130;13.978;2023-07-31T07:59:37;16.40;99.90
19031;DHT22;9648;51.130;13.978;2023-07-31T08:02:05;16.40;99.90
19031;DHT22;9648;51.130;13.978;2023-07-31T08:04:32;16.40;99.90
19031;DHT22;9648;51.130;13.978;2023-07-31T08:06:59;16.40;99.90
19031;DHT22;9648;51.130;13.978;2023-07-31T08:09:26;16.50;99.90
19031;DHT22;9648;51.130;13.978;2023-07-31T08:11:52;16.50;99.90
19031;DHT22;9648;51.130;13.978;2023-07-31T08:14:20;16.50;99.90
19031;DHT22;9648;51.130;13.978;2023-07-31T08:16:46;16.40;99.90
19031;DHT22;9648;51.130;13.978;2023-07-31T08:19:15;16.40;99.90
19031;DHT22;9648;51.130;13.978;2023-07-31T08:21:42;16.40;99.90
19031;DHT22;9648;51.130;13.978;2023-07-31T08:24:08;16.50;99.90
19031;DHT22;9648;51.130;13.978;2023-07-31T08:26:35;16.60;99.90
19031;DHT22;9648;51.130;13.978;2023-07-31T08:29:02;16.70;99.90
19031;DHT22;9648;51.130;13.978;2023-07-31T08:31:29;16.80;99.90
19031;DHT22;9648;51.130;13.978;2023-07-31T08:33:56;16.80;99.90
19031;DHT22;9648;51.130;13.978;2023-07-31T08:36:24;16.90;99.90
19031;DHT22;9648;51.130;13.978;2023-07-31T08:38:51;17.00;99.90
19031;DHT22;9648;51.130;13.978;2023-07-31T08:41:17;17.10;99.90
19031;DHT22;9648;51.130;13.978;2023-07-31T08:43:45;17.20;99.90
19031;DHT22;9648;51.130;13.978;2023-07-31T08:46:12;17.40;99.90
19031;DHT22;9648;51.130;13.978;2023-07-31T08:48:41;17.50;99.90
19031;DHT22;9648;51.130;13.978;2023-07-31T08:51:09;17.50;99.90
19031;DHT22;9648;51.130;13.978;2023-07-31T08:53:37;17.50;99.90
19031;DHT22;9648;51.130;13.978;2023-07-31T08:56:05;17.60;99.90
19031;DHT22;9648;51.130;13.978;2023-07-31T08:58:33;17.70;99.90
19031;DHT22;9648;51.130;13.978;2023-07-31T09:01:03;17.70;99.90
19031;DHT22;9648;51.130;13.978;2023-07-31T09:03:33;17.80;99.90
19031;DHT22;9648;51.130;13.978;2023-07-31T09:06:01;17.80;99.90
19031;DHT22;9648;51.130;13.978;2023-07-31T09:08:31;17.80;99.90
19031;DHT22;9648;51.130;13.978;2023-07-31T09:11:01;17.80;99.90
19031;DHT22;9648;51.130;13.978;2023-07-31T09:13:29;17.70;99.90
19031;DHT22;9648;51.130;13.978;2023-07-31T09:15:56;17.70;99.90
19031;DHT22;9648;51.130;13.978;2023-07-31T09:18:23;17.70;99.90
19031;DHT22;9648;51.130;13.978;2023-07-31T09:21:00;17.60;99.90
19031;DHT22;9648;51.130;13.978;2023-07-31T09:23:40;17.50;99.90
19031;DHT22;9648;51.130;13.978;2023-07-31T09:26:08;17.40;99.90
19031;DHT22;9648;51.130;13.978;2023-07-31T09:28:36;17.40;99.90
19031;DHT22;9648;51.130;13.978;2023-07-31T09:31:03;17.30;99.90
19031;DHT22;9648;51.130;13.978;2023-07-31T09:33:30;17.30;99.90
19031;DHT22;9648;51.130;13.978;2023-07-31T09:35:58;17.30;99.90
19031;DHT22;9648;51.130;13.978;2023-07-31T09:38:26;17.30;99.90
19031;DHT22;9648;51.130;13.978;2023-07-31T09:40:53;17.30;99.90
19031;DHT22;9648;51.130;13.978;2023-07-31T09:43:22;17.40;99.90
19031;DHT22;9648;51.130;13.978;2023-07-31T09:45:55;17.40;99.90
19031;DHT22;9648;51.130;13.978;2023-07-31T09:51:26;17.50;99.90
19031;DHT22;9648;51.130;13.978;2023-07-31T09:53:54;17.50;99.90
19031;DHT22;9648;51.130;13.978;2023-07-31T09:56:21;17.50;99.90
19031;DHT22;9648;51.130;13.978;2023-07-31T09:58:51;17.50;99.90
19031;DHT22;9648;51.130;13.978;2023-07-31T10:01:18;17.40;99.90
19031;DHT22;9648;51.130;13.978;2023-07-31T10:03:45;17.50;99.90
19031;DHT22;9648;51.130;13.978;2023-07-31T10:06:14;17.50;99.90
19031;DHT22;9648;51.130;13.978;2023-07-31T10:08:43;17.50;99.90
19031;DHT22;9648;51.130;13.978;2023-07-31T10:11:13;17.50;99.90
19031;DHT22;9648;51.130;13.978;2023-07-31T10:13:40;17.60;99.90
19031;DHT22;9648;51.130;13.978;2023-07-31T10:16:10;17.80;99.90
19031;DHT22;9648;51.130;13.978;2023-07-31T10:18:38;17.90;99.90
19031;DHT22;9648;51.130;13.978;2023-07-31T10:21:06;18.10;99.90
19031;DHT22;9648;51.130;13.978;2023-07-31T10:23:34;18.20;99.90
19031;DHT22;9648;51.130;13.978;2023-07-31T10:26:01;18.20;99.90
19031;DHT22;9648;51.130;13.978;2023-07-31T10:28:29;18.30;99.90
19031;DHT22;9648;51.130;13.978;2023-07-31T10:30:59;18.30;99.90
19031;DHT22;9648;51.130;13.978;2023-07-31T10:33:28;18.30;99.90
19031;DHT22;9648;51.130;13.978;2023-07-31T10:36:13;18.30;99.90
19031;DHT22;9648;51.130;13.978;2023-07-31T10:38:42;18.40;99.90
19031;DHT22;9648;51.130;13.978;2023-07-31T10:41:10;18.40;99.90
19031;DHT22;9648;51.130;13.978;2023-07-31T10:43:37;18.40;99.90
19031;DHT22;9648;51.130;13.978;2023-07-31T10:46:07;18.40;99.90
19031;DHT22;9648;51.130;13.978;2023-07-31T10:48:38;18.50;99.90
19031;DHT22;9648;51.130;13.978;2023-07-31T10:51:08;18.70;99.90
19031;DHT22;9648;51.130;13.978;2023-07-31T10:53:36;18.80;99.90
19031;DHT22;9648;51.130;13.978;2023-07-31T10:56:04;18.90;99.90
19031;DHT22;9648;51.130;13.978;2023-07-31T10:58:32;19.00;99.90
19031;DHT22;9648;51.130;13.978;2023-07-31T11:01:01;19.10;99.90
19031;DHT22;9648;51.130;13.978;2023-07-31T11:03:43;19.20;99.90
19031;DHT22;9648;51.130;13.978;2023-07-31T11:06:10;19.20;99.90
19031;DHT22;9648;51.130;13.978;2023-07-31T11:08:42;19.40;99.90
19031;DHT22;9648;51.130;13.978;2023-07-31T11:11:10;19.30;99.90
19031;DHT22;9648;51.130;13.978;2023-07-31T11:13:43;19.30;99.90
19031;DHT22;9648;51.130;13.978;2023-07-31T11:16:11;19.30;99.90
19031;DHT22;9648;51.130;13.978;2023-07-31T11:18:39;19.30;99.90
19031;DHT22;9648;51.130;13.978;2023-07-31T11:21:11;19.40;99.90
19031;DHT22;9648;51.130;13.978;2023-07-31T11:23:39;19.40;99.90
19031;DHT22;9648;51.130;13.978;2023-07-31T11:26:06;19.40;99.90
19031;DHT22;9648;51.130;13.978;2023-07-31T11:28:34;19.30;99.90
19031;DHT22;9648;51.130;13.978;2023-07-31T11:31:01;19.30;99.90
19031;DHT22;9648;51.130;13.978;2023-07-31T11:33:29;19.30;99.90
19031;DHT22;9648;51.130;13.978;2023-07-31T11:35:56;19.40;99.90
19031;DHT22;9648;51.130;13.978;2023-07-31T11:38:25;19.50;99.90
19031;DHT22;9648;51.130;13.978;2023-07-31T11:40:53;19.50;99.90
19031;DHT22;9648;51.130;13.978;2023-07-31T11:43:20;19.50;99.90
19031;DHT22;9648;51.130;13.978;2023-07-31T11:45:48;19.40;99.90
19031;DHT22;9648;51.130;13.978;2023-07-31T11:48:19;19.40;99.90
19031;DHT22;9648;51.130;13.978;2023-07-31T11:50:48;19.40;99.90
19031;DHT22;9648;51.130;13.978;2023-07-31T11:53:18;19.40;99.90
19031;DHT22;9648;51.130;13.978;2023-07-31T11:55:47;19.50;99.90
19031;DHT22;9648;51.130;13.978;2023-07-31T11:58:16;19.50;99.90
19031;DHT22;9648;51.130;13.978;2023-07-31T12:00:43;19.50;99.90
19031;DHT22;9648;51.130;13.978;2023-07-31T12:03:10;19.60;99.90
19031;DHT22;9648;51.130;13.978;2023-07-31T12:05:38;19.70;99.90
19031;DHT22;9648;51.130;13.978;2023-07-31T12:08:09;19.80;99.90
19031;DHT22;9648;51.130;13.978;2023-07-31T12:10:37;19.90;99.90
19031;DHT22;9648;51.130;13.978;2023-07-31T12:13:08;20.00;99.90
19031;DHT22;9648;51.130;13.978;2023-07-31T12:15:39;20.00;99.90
19031;DHT22;9648;51.130;13.978;2023-07-31T12:18:09;20.00;99.90
19031;DHT22;9648;51.130;13.978;2023-07-31T12:20:41;20.20;99.90
19031;DHT22;9648;51.130;13.978;2023-07-31T12:23:13;20.50;99.90
19031;DHT22;9648;51.130;13.978;2023-07-31T12:25:40;20.80;99.90
19031;DHT22;9648;51.130;13.978;2023-07-31T12:28:09;21.10;99.90
19031;DHT22;9648;51.130;13.978;2023-07-31T12:30:38;21.30;99.90
19031;DHT22;9648;51.130;13.978;2023-07-31T12:33:07;21.30;99.90
19031;DHT22;9648;51.130;13.978;2023-07-31T12:35:41;21.40;99.90
19031;DHT22;9648;51.130;13.978;2023-07-31T12:38:08;21.50;99.90
19031;DHT22;9648;51.130;13.978;2023-07-31T12:40:38;21.80;99.90
19031;DHT22;9648;51.130;13.978;2023-07-31T12:43:05;21.80;99.90
19031;DHT22;9648;51.130;13.978;2023-07-31T12:45:34;21.80;99.90
19031;DHT22;9648;51.130;13.978;2023-07-31T12:48:02;21.80;99.90
19031;DHT22;9648;51.130;13.978;2023-07-31T12:50:28;21.80;99.90
19031;DHT22;9648;51.130;13.978;2023-07-31T12:52:56;21.70;99.90
19031;DHT22;9648;51.130;13.978;2023-07-31T12:55:23;21.60;99.90
19031;DHT22;9648;51.130;13.978;2023-07-31T12:57:51;21.60;99.90
19031;DHT22;9648;51.130;13.978;2023-07-31T13:00:18;21.60;99.90
19031;DHT22;9648;51.130;13.978;2023-07-31T13:02:47;21.60;99.90
19031;DHT22;9648;51.130;13.978;2023-07-31T13:05:14;21.70;99.90
19031;DHT22;9648;51.130;13.978;2023-07-31T13:07:41;21.90;99.90
19031;DHT22;9648;51.130;13.978;2023-07-31T13:10:08;22.00;99.90
19031;DHT22;9648;51.130;13.978;2023-07-31T13:12:35;22.20;99.90
19031;DHT22;9648;51.130;13.978;2023-07-31T13:15:03;22.20;99.90
19031;DHT22;9648;51.130;13.978;2023-07-31T13:17:30;22.10;99.90
19031;DHT22;9648;51.130;13.978;2023-07-31T13:19:58;22.00;99.90
19031;DHT22;9648;51.130;13.978;2023-07-31T13:22:26;21.90;99.90
19031;DHT22;9648;51.130;13.978;2023-07-31T13:24:53;22.00;99.90
19031;DHT22;9648;51.130;13.978;2023-07-31T13:27:20;22.10;99.90
19031;DHT22;9648;51.130;13.978;2023-07-31T13:29:48;22.00;99.90
19031;DHT22;9648;51.130;13.978;2023-07-31T13:32:16;22.10;99.90
19031;DHT22;9648;51.130;13.978;2023-07-31T13:34:43;22.10;99.90
19031;DHT22;9648;51.130;13.978;2023-07-31T13:37:12;22.10;99.90
19031;DHT22;9648;51.130;13.978;2023-07-31T13:39:39;22.00;99.90
19031;DHT22;9648;51.130;13.978;2023-07-31T13:42:08;22.00;99.90
19031;DHT22;9648;51.130;13.978;2023-07-31T13:44:37;22.00;99.90
19031;DHT22;9648;51.130;13.978;2023-07-31T13:47:04;22.00;99.90
19031;DHT22;9648;51.130;13.978;2023-07-31T13:49:31;22.10;99.90
19031;DHT22;9648;51.130;13.978;2023-07-31T13:51:58;22.20;99.90
19031;DHT22;9648;51.130;13.978;2023-07-31T13:54:26;22.20;99.90
19031;DHT22;9648;51.130;13.978;2023-07-31T13:56:53;22.40;99.90
19031;DHT22;9648;51.130;13.978;2023-07-31T13:59:20;22.40;99.90
19031;DHT22;9648;51.130;13.978;2023-07-31T14:01:47;22.40;99.90
19031;DHT22;9648;51.130;13.978;2023-07-31T14:04:14;22.50;99.90
19031;DHT22;9648;51.130;13.978;2023-07-31T14:06:41;22.50;99.90
19031;DHT22;9648;51.130;13.978;2023-07-31T14:09:07;22.40;99.90
19031;DHT22;9648;51.130;13.978;2023-07-31T14:11:35;22.50;99.90
19031;DHT22;9648;51.130;13.978;2023-07-31T14:17:25;22.60;99.90
19031;DHT22;9648;51.130;13.978;2023-07-31T14:20:03;22.60;99.90
19031;DHT22;9648;51.130;13.978;2023-07-31T14:22:30;22.50;99.90
19031;DHT22;9648;51.130;13.978;2023-07-31T14:24:59;22.60;99.90
19031;DHT22;9648;51.130;13.978;2023-07-31T14:27:32;22.50;99.90
19031;DHT22;9648;51.130;13.978;2023-07-31T14:30:01;22.50;99.90
19031;DHT22;9648;51.130;13.978;2023-07-31T14:32:31;22.40;99.90
19031;DHT22;9648;51.130;13.978;2023-07-31T14:34:59;22.50;99.90
19031;DHT22;9648;51.130;13.978;2023-07-31T14:37:36;22.50;99.90
19031;DHT22;9648;51.130;13.978;2023-07-31T14:40:05;22.30;99.90
19031;DHT22;9648;51.130;13.978;2023-07-31T14:42:33;22.10;99.90
19031;DHT22;9648;51.130;13.978;2023-07-31T14:45:04;21.90;99.90
19031;DHT22;9648;51.130;13.978;2023-07-31T14:47:31;21.80;99.90
19031;DHT22;9648;51.130;13.978;2023-07-31T14:50:02;21.70;99.90
19031;DHT22;9648;51.130;13.978;2023-07-31T14:52:30;21.60;99.90
19031;DHT22;9648;51.130;13.978;2023-07-31T14:55:00;21.80;99.90
19031;DHT22;9648;51.130;13.978;2023-07-31T14:57:35;21.90;99.90
19031;DHT22;9648;51.130;13.978;2023-07-31T15:00:06;21.90;99.90
19031;DHT22;9648;51.130;13.978;2023-07-31T15:02:34;21.90;99.90
19031;DHT22;9648;51.130;13.978;2023-07-31T15:05:01;22.00;99.90
19031;DHT22;9648;51.130;13.978;2023-07-31T15:07:28;21.90;99.90
19031;DHT22;9648;51.130;13.978;2023-07-31T15:09:55;21.80;99.90
19031;DHT22;9648;51.130;13.978;2023-07-31T15:12:25;21.80;99.90
19031;DHT22;9648;51.130;13.978;2023-07-31T15:14:55;21.70;99.90
19031;DHT22;9648;51.130;13.978;2023-07-31T15:17:24;21.60;99.90
19031;DHT22;9648;51.130;13.978;2023-07-31T15:19:52;21.50;99.90
19031;DHT22;9648;51.130;13.978;2023-07-31T15:22:23;21.30;99.90
19031;DHT22;9648;51.130;13.978;2023-07-31T15:24:54;21.20;99.90
19031;DHT22;9648;51.130;13.978;2023-07-31T15:27:21;21.30;99.90
19031;DHT22;9648;51.130;13.978;2023-07-31T15:29:49;21.40;99.90
19031;DHT22;9648;51.130;13.978;2023-07-31T15:32:18;21.50;99.90
19031;DHT22;9648;51.130;13.978;2023-07-31T15:34:45;21.30;99.90
19031;DHT22;9648;51.130;13.978;2023-07-31T15:37:12;21.30;99.90
19031;DHT22;9648;51.130;13.978;2023-07-31T15:40:00;21.20;99.90